Time;durP1;ratioP1;P1;durP2;ratioP2;P2;SDS_P1;SDS_P2;PMS_P1;PMS_P2;Temp;Humidity;BMP_temperature;BMP_pressure;BME280_temperature;BME280_humidity;BME280_pressure;Samples;Min_cycle;Max_cycle;Signal;HPM_P1;HPM_P2
2021/12/25 00:01:46;;;;;;;22.52;7.72;;;;;;;-0.71;100.00;97524.02;2155410;82;21499;-59
2021/12/25 00:04:47;;;;;;;22.02;7.92;;;;;;;-0.74;100.00;97520.27;2182004;81;21022;-59
2021/12/25 00:07:48;;;;;;;23.15;8.13;;;;;;;-0.76;100.00;97520.33;2182025;82;21009;-59
2021/12/25 00:10:49;;;;;;;23.47;8.70;;;;;;;-0.76;100.00;97533.20;2182110;81;21539;-60
2021/12/25 00:13:49;;;;;;;25.15;9.48;;;;;;;-0.78;100.00;97530.28;2181670;81;21488;-59
2021/12/25 00:16:50;;;;;;;24.50;9.63;;;;;;;-0.82;100.00;97536.02;2182280;81;20988;-59
2021/12/25 00:19:50;;;;;;;24.07;8.65;;;;;;;-0.85;100.00;97536.09;2181963;82;21024;-59
2021/12/25 00:22:51;;;;;;;26.93;9.85;;;;;;;-0.85;100.00;97533.52;2182004;81;21016;-59
2021/12/25 00:25:58;;;;;;;26.65;9.80;;;;;;;-0.87;100.00;97537.44;2181987;82;21028;-59
2021/12/25 00:29:03;;;;;;;26.68;10.32;;;;;;;-0.88;100.00;97540.06;2154963;82;21047;-59
2021/12/25 00:32:12;;;;;;;28.35;11.25;;;;;;;-0.88;100.00;97548.66;2165206;81;21094;-60
2021/12/25 00:34:59;;;;;;;24.65;8.88;;;;;;;-0.89;100.00;97544.81;2146659;82;21020;-59
2021/12/25 00:38:00;;;;;;;27.93;9.80;;;;;;;-0.90;100.00;97550.88;2181623;82;21067;-59
2021/12/25 00:41:04;;;;;;;24.70;9.20;;;;;;;-0.92;100.00;97579.68;2182094;81;21551;-59
2021/12/25 00:44:04;;;;;;;27.48;10.60;;;;;;;-0.91;100.00;97571.91;2181922;81;21024;-59
2021/12/25 00:47:05;;;;;;;28.62;11.70;;;;;;;-0.91;100.00;97573.19;2181933;82;21520;-59
2021/12/25 00:50:05;;;;;;;29.57;11.55;;;;;;;-0.93;100.00;97598.16;2192586;81;20979;-60
2021/12/25 00:53:06;;;;;;;26.55;11.05;;;;;;;-0.94;100.00;97595.19;2172121;82;20996;-59
2021/12/25 00:56:06;;;;;;;26.05;10.82;;;;;;;-0.93;100.00;97613.61;2185435;81;21000;-59
2021/12/25 00:59:07;;;;;;;22.37;6.53;;;;;;;-0.95;100.00;97625.70;2168030;82;21013;-59
2021/12/25 01:02:07;;;;;;;20.97;6.90;;;;;;;-1.03;98.81;97657.71;2168240;82;21044;-58
2021/12/25 01:05:07;;;;;;;18.10;5.17;;;;;;;-1.21;98.75;97638.13;2168050;82;21519;-59
2021/12/25 01:08:10;;;;;;;17.12;4.72;;;;;;;-1.35;97.15;97680.17;2168021;82;21072;-59
2021/12/25 01:11:10;;;;;;;19.15;5.35;;;;;;;-1.47;98.43;97663.40;2168219;82;21068;-59
2021/12/25 01:14:22;;;;;;;19.57;5.45;;;;;;;-1.53;99.04;97667.00;2168236;82;21515;-59
2021/12/25 01:23:57;;;;;;;14.20;4.03;;;;;;;-1.70;97.47;97711.67;2141443;82;21028;-59
2021/12/25 01:29:32;;;;;;;12.40;3.83;;;;;;;-1.90;95.89;97727.67;2131537;83;21028;-59
2021/12/25 01:35:46;;;;;;;11.33;3.40;;;;;;;-2.02;97.38;97731.44;2105553;84;21013;-59
2021/12/25 01:50:38;;;;;;;14.58;3.95;;;;;;;-2.34;96.18;97768.66;2105567;84;20953;-59
2021/12/25 01:53:38;;;;;;;13.18;3.72;;;;;;;-2.38;96.18;97804.75;2131249;83;20989;-59
2021/12/25 01:56:39;;;;;;;12.85;3.85;;;;;;;-2.48;95.87;97784.41;2131010;84;21028;-58
2021/12/25 01:59:39;;;;;;;10.78;3.55;;;;;;;-2.53;96.02;97786.27;2131289;84;20993;-59
2021/12/25 02:02:40;;;;;;;15.45;4.70;;;;;;;-2.56;96.11;97800.45;2131230;84;21555;-59
2021/12/25 02:05:40;;;;;;;15.05;4.12;;;;;;;-2.60;96.25;97805.28;2131510;84;20981;-59
2021/12/25 02:08:41;;;;;;;14.28;4.12;;;;;;;-2.66;95.84;97795.14;2131062;84;21045;-59
2021/12/25 02:11:41;;;;;;;14.07;4.30;;;;;;;-2.70;95.55;97802.08;2131493;84;21020;-59
2021/12/25 02:14:44;;;;;;;15.63;4.40;;;;;;;-2.74;95.68;97812.02;2131266;83;21045;-60
2021/12/25 02:23:49;;;;;;;15.60;4.03;;;;;;;-2.82;95.64;97817.77;2105822;84;21542;-59
2021/12/25 02:26:49;;;;;;;14.75;4.00;;;;;;;-2.85;96.04;97825.09;2131629;84;21001;-59
2021/12/25 02:29:50;;;;;;;13.13;4.15;;;;;;;-2.85;96.59;97817.39;2131537;84;21093;-59
2021/12/25 02:32:50;;;;;;;12.53;3.75;;;;;;;-2.88;96.15;97822.59;2131545;84;20989;-59
2021/12/25 02:35:51;;;;;;;11.22;3.17;;;;;;;-2.92;95.51;97829.13;2144847;83;21499;-59
2021/12/25 02:38:51;;;;;;;8.50;2.95;;;;;;;-2.98;94.83;97846.78;2145142;83;20996;-59
2021/12/25 02:41:51;;;;;;;5.97;2.20;;;;;;;-3.03;93.65;97848.59;2144996;83;21091;-59
2021/12/25 02:44:52;;;;;;;6.50;2.35;;;;;;;-3.09;91.78;97869.26;2144878;83;21084;-59
2021/12/25 02:47:53;;;;;;;4.85;1.70;;;;;;;-3.16;91.54;97864.27;2144853;83;21127;-59
2021/12/25 02:50:53;;;;;;;8.10;1.77;;;;;;;-3.25;89.73;97885.41;2144884;83;21084;-59
2021/12/25 02:53:53;;;;;;;3.98;1.55;;;;;;;-3.38;88.81;97899.75;2145079;83;21618;-59
2021/12/25 02:56:54;;;;;;;7.37;2.12;;;;;;;-3.47;90.39;97902.51;2148471;83;21052;-60
2021/12/25 02:59:54;;;;;;;5.70;1.80;;;;;;;-3.57;89.77;97899.27;2148679;83;20983;-59
2021/12/25 03:02:55;;;;;;;6.20;2.05;;;;;;;-3.66;90.21;97927.66;2148582;83;20991;-59
2021/12/25 03:05:55;;;;;;;5.12;1.75;;;;;;;-3.73;89.61;97909.41;2148539;83;21145;-60
2021/12/25 03:08:56;;;;;;;10.03;2.02;;;;;;;-3.75;91.44;97922.67;2148279;83;21110;-59
2021/12/25 03:11:57;;;;;;;8.55;1.77;;;;;;;-3.79;92.46;97919.34;2148041;83;21559;-59
2021/12/25 03:18:00;;;;;;;9.83;2.37;;;;;;;-4.01;90.37;97940.20;2124206;83;21503;-59
2021/12/25 03:21:01;;;;;;;10.55;2.20;;;;;;;-4.13;91.16;97957.05;2148628;83;21023;-60
2021/12/25 03:24:03;;;;;;;10.32;2.40;;;;;;;-4.25;90.26;97996.50;2148589;83;21110;-59
2021/12/25 03:27:04;;;;;;;8.47;1.90;;;;;;;-4.44;88.95;97972.88;2148763;83;21658;-59
2021/12/25 03:30:04;;;;;;;6.97;1.87;;;;;;;-4.59;88.49;97977.77;2148705;83;21004;-58
2021/12/25 03:33:05;;;;;;;6.12;1.60;;;;;;;-4.77;87.12;97994.23;2148480;83;21024;-59
2021/12/25 03:36:05;;;;;;;5.83;1.60;;;;;;;-4.89;85.35;98007.99;2148274;83;21479;-59
2021/12/25 03:39:06;;;;;;;5.62;1.35;;;;;;;-5.08;84.11;98006.09;2148305;83;20988;-60
2021/12/25 03:42:07;;;;;;;9.47;1.60;;;;;;;-5.18;85.99;97993.00;2148877;83;21111;-59
2021/12/25 03:45:07;;;;;;;8.68;1.15;;;;;;;-5.26;84.69;98013.55;2148099;83;21008;-58
2021/12/25 03:48:15;;;;;;;10.25;1.95;;;;;;;-5.35;86.37;98016.63;2148690;83;21047;-59
2021/12/25 04:00:26;;;;;;;6.78;1.47;;;;;;;-5.58;87.27;98022.80;2118616;83;21052;-59
2021/12/25 04:03:27;;;;;;;4.92;1.30;;;;;;;-5.67;87.06;98022.45;2118538;83;20987;-59
2021/12/25 04:06:22;;;;;;;7.08;1.17;;;;;;;-5.75;87.41;98007.20;2118539;83;20996;-59
2021/12/25 04:09:27;;;;;;;4.22;0.88;;;;;;;-5.81;87.79;98018.72;2144726;82;21000;-58
2021/12/25 04:12:25;;;;;;;4.50;1.05;;;;;;;-5.91;85.18;98025.61;2118297;83;21090;-58
2021/12/25 04:15:25;;;;;;;6.12;1.37;;;;;;;-5.97;86.93;98036.35;2144887;83;21003;-59
2021/12/25 04:18:26;;;;;;;7.67;1.50;;;;;;;-6.02;86.90;98036.80;2144968;83;20999;-58
2021/12/25 04:21:28;;;;;;;5.92;1.10;;;;;;;-6.07;87.21;98041.11;2144850;83;21007;-60
2021/12/25 04:24:31;;;;;;;5.85;1.15;;;;;;;-6.09;86.41;98057.72;2144820;83;21135;-59
2021/12/25 04:27:32;;;;;;;4.62;1.30;;;;;;;-6.12;86.79;98055.16;2118338;83;21016;-59
2021/12/25 05:04:02;;;;;;;13.58;1.72;;;;;;;-6.36;89.18;98124.66;2123963;83;21020;-58
2021/12/25 05:06:59;;;;;;;7.75;1.32;;;;;;;-6.42;88.49;98136.17;2124011;83;21087;-59
2021/12/25 05:10:00;;;;;;;6.03;1.35;;;;;;;-6.42;88.49;98136.17;2148567;83;20996;-59
2021/12/25 05:13:01;;;;;;;6.78;1.15;;;;;;;-6.48;88.62;98140.00;2148121;83;21543;-58
2021/12/25 05:16:02;;;;;;;4.78;1.15;;;;;;;-6.54;88.26;98152.79;2148297;83;20992;-57
2021/12/25 05:19:03;;;;;;;6.05;1.60;;;;;;;-6.63;88.40;98150.68;2148494;83;21043;-59
2021/12/25 05:22:03;;;;;;;7.00;1.62;;;;;;;-6.68;88.94;98152.82;2148284;83;21843;-58
2021/12/25 05:25:04;;;;;;;8.35;1.45;;;;;;;-6.74;89.10;98157.95;2148178;83;21527;-59
2021/12/25 05:28:04;;;;;;;8.43;1.82;;;;;;;-6.81;89.10;98163.07;2148475;83;21006;-58
2021/12/25 05:31:04;;;;;;;5.60;1.47;;;;;;;-6.92;88.57;98162.64;2148483;83;20968;-58
2021/12/25 05:34:05;;;;;;;6.53;1.47;;;;;;;-7.04;89.27;98168.21;2148182;83;21062;-58
2021/12/25 05:37:05;;;;;;;6.12;1.40;;;;;;;-7.17;88.85;98172.47;2148291;83;20948;-59
2021/12/25 05:40:06;;;;;;;8.05;1.57;;;;;;;-7.28;88.51;98183.08;2148215;83;21463;-58
2021/12/25 05:43:07;;;;;;;8.73;1.40;;;;;;;-7.41;88.97;98178.81;2148596;83;20981;-58
2021/12/25 05:46:07;;;;;;;7.33;1.47;;;;;;;-7.55;89.16;98189.01;2148377;83;20996;-58
2021/12/25 05:49:08;;;;;;;13.80;2.27;;;;;;;-7.66;89.03;98197.48;2148411;83;20949;-57
2021/12/25 05:52:08;;;;;;;8.13;1.65;;;;;;;-7.75;89.71;98206.36;2148176;83;20998;-59
2021/12/25 05:55:09;;;;;;;7.42;1.40;;;;;;;-7.81;89.71;98213.12;2147330;83;21928;-59
2021/12/25 05:58:09;;;;;;;7.80;1.65;;;;;;;-7.90;89.52;98210.13;2144691;83;21036;-59
2021/12/25 06:01:11;;;;;;;4.40;1.37;;;;;;;-7.96;89.94;98221.58;2144782;83;21007;-59
2021/12/25 06:04:12;;;;;;;4.37;1.47;;;;;;;-7.99;90.39;98231.33;2144923;83;21148;-59
2021/12/25 06:07:12;;;;;;;8.63;1.52;;;;;;;-8.01;90.62;98240.66;2144728;83;21538;-59
2021/12/25 06:10:13;;;;;;;8.50;1.77;;;;;;;-8.02;90.91;98247.86;2145062;82;21027;-59
2021/12/25 06:13:18;;;;;;;4.30;1.27;;;;;;;-8.05;91.17;98246.15;2144776;83;21088;-60
2021/12/25 06:16:16;;;;;;;10.78;1.85;;;;;;;-8.07;91.19;98247.02;2118691;83;21055;-59
2021/12/25 06:19:16;;;;;;;7.42;1.45;;;;;;;-8.09;91.04;98250.80;2144740;83;21066;-58
2021/12/25 06:22:17;;;;;;;8.90;1.77;;;;;;;-8.11;91.00;98251.22;2144650;83;21039;-58
2021/12/25 06:25:17;;;;;;;10.00;1.62;;;;;;;-8.12;91.04;98253.77;2144727;83;21518;-59
2021/12/25 06:28:18;;;;;;;6.60;1.50;;;;;;;-8.17;90.85;98252.48;2144632;83;21491;-59
2021/12/25 06:31:18;;;;;;;10.25;2.02;;;;;;;-8.24;91.04;98258.38;2144707;83;21097;-59
2021/12/25 06:34:19;;;;;;;12.85;2.00;;;;;;;-8.28;91.19;98260.48;2144828;83;21075;-58
2021/12/25 06:37:20;;;;;;;7.70;1.42;;;;;;;-8.36;91.42;98265.50;2144602;83;21062;-59
2021/12/25 06:40:22;;;;;;;4.72;1.30;;;;;;;-8.45;91.38;98272.69;2144738;83;21059;-57
2021/12/25 06:43:23;;;;;;;11.22;1.60;;;;;;;-8.54;91.57;98272.22;2144975;83;21147;-59
2021/12/25 06:46:23;;;;;;;7.22;1.20;;;;;;;-8.62;91.48;98281.52;2144878;83;21293;-59
2021/12/25 06:49:23;;;;;;;7.50;1.85;;;;;;;-8.66;91.70;98287.41;2144628;83;21094;-58
2021/12/25 06:52:24;;;;;;;7.53;1.65;;;;;;;-8.68;91.90;98286.97;2144446;83;21534;-59
2021/12/25 06:55:24;;;;;;;9.63;1.92;;;;;;;-8.62;92.42;98287.88;2144845;83;21071;-60
2021/12/25 06:58:25;;;;;;;14.60;2.60;;;;;;;-8.47;92.63;98299.83;2144722;83;21035;-59
2021/12/25 07:01:25;;;;;;;23.77;5.40;;;;;;;-8.36;92.50;98291.81;2144885;83;21027;-58
2021/12/25 07:04:26;;;;;;;30.85;8.70;;;;;;;-8.31;91.96;98289.29;2144804;83;20983;-59
2021/12/25 07:07:27;;;;;;;39.45;12.82;;;;;;;-8.16;92.44;98292.77;2144702;83;21052;-59
2021/12/25 07:10:27;;;;;;;57.73;19.95;;;;;;;-7.98;92.13;98301.77;2144884;83;20992;-59
2021/12/25 07:13:28;;;;;;;100.02;31.62;;;;;;;-7.90;91.84;98311.58;2144870;83;21077;-59
2021/12/25 07:16:28;;;;;;;109.95;32.78;;;;;;;-7.81;91.65;98316.26;2144803;83;21521;-59
2021/12/25 07:19:29;;;;;;;40.17;11.15;;;;;;;-7.64;91.74;98326.52;2145028;83;20968;-59
2021/12/25 07:22:29;;;;;;;34.13;9.20;;;;;;;-7.47;91.32;98317.23;2145107;83;20992;-58
2021/12/25 07:25:30;;;;;;;46.88;14.63;;;;;;;-7.28;91.48;98320.71;2144952;83;21023;-60
2021/12/25 07:28:30;;;;;;;101.22;34.50;;;;;;;-7.11;91.32;98316.92;2144929;82;21059;-60
2021/12/25 07:31:31;;;;;;;104.83;35.43;;;;;;;-6.94;91.03;98320.75;2144896;83;21536;-58
2021/12/25 07:34:32;;;;;;;69.60;22.13;;;;;;;-6.75;90.79;98329.69;2145123;83;20975;-59
2021/12/25 07:37:33;;;;;;;48.65;15.90;;;;;;;-6.66;90.61;98335.66;2144943;82;21071;-59
2021/12/25 07:40:34;;;;;;;40.05;12.20;;;;;;;-6.49;90.41;98343.31;2145120;83;21142;-59
2021/12/25 07:43:35;;;;;;;145.55;44.38;;;;;;;-6.42;90.03;98335.23;2144865;83;21007;-58
2021/12/25 07:46:35;;;;;;;152.00;49.45;;;;;;;-6.37;89.21;98337.34;2144844;83;21031;-58
2021/12/25 07:49:36;;;;;;;60.60;18.77;;;;;;;-6.32;89.01;98343.30;2144995;83;20991;-59
2021/12/25 07:52:36;;;;;;;40.03;11.05;;;;;;;-6.47;88.15;98333.10;2144880;83;21043;-58
2021/12/25 07:55:37;;;;;;;38.23;10.00;;;;;;;-6.71;87.27;98339.05;2145126;83;21023;-58
2021/12/25 07:58:37;;;;;;;40.23;11.38;;;;;;;-6.94;87.41;98355.17;2148261;83;21470;-59
2021/12/25 08:01:38;;;;;;;44.50;12.23;;;;;;;-7.07;87.98;98354.30;2148483;83;21067;-59
2021/12/25 08:04:38;;;;;;;50.08;13.90;;;;;;;-7.12;88.25;98363.66;2148273;83;20968;-58
2021/12/25 08:07:39;;;;;;;42.10;12.53;;;;;;;-7.17;88.49;98351.30;2148219;83;21079;-58
2021/12/25 08:10:40;;;;;;;37.65;10.28;;;;;;;-7.14;88.53;98353.86;2148069;83;21559;-58
2021/12/25 08:13:41;;;;;;;41.15;13.35;;;;;;;-7.17;88.39;98359.83;2148283;82;21034;-58
2021/12/25 08:16:41;;;;;;;36.28;11.05;;;;;;;-7.15;88.82;98360.66;2148384;83;21000;-61
2021/12/25 08:19:41;;;;;;;31.00;9.80;;;;;;;-7.16;88.39;98356.41;2148644;83;21007;-59
2021/12/25 08:22:42;;;;;;;26.97;7.80;;;;;;;-7.19;88.75;98365.76;2148488;83;21066;-59
2021/12/25 08:25:43;;;;;;;30.82;8.58;;;;;;;-7.20;88.72;98367.44;2148167;83;21083;-58
2021/12/25 08:28:43;;;;;;;24.77;7.97;;;;;;;-7.27;88.43;98368.70;2148335;83;21042;-58
2021/12/25 08:31:43;;;;;;;23.90;5.87;;;;;;;-7.24;89.25;98361.93;2148216;83;21568;-58
2021/12/25 08:34:44;;;;;;;21.12;6.08;;;;;;;-7.12;89.28;98376.80;2148254;83;20980;-58
2021/12/25 08:37:45;;;;;;;23.32;6.15;;;;;;;-7.01;89.69;98373.86;2148390;83;20970;-58
2021/12/25 08:40:46;;;;;;;23.57;6.92;;;;;;;-6.77;90.28;98378.16;2148262;83;21027;-58
2021/12/25 08:43:48;;;;;;;24.43;7.58;;;;;;;-6.44;90.47;98391.80;2148341;83;21027;-59
2021/12/25 08:49:51;;;;;;;21.87;5.90;;;;;;;-6.21;89.10;98399.45;2124276;83;21586;-59
2021/12/25 08:52:51;;;;;;;24.92;7.75;;;;;;;-6.20;87.36;98401.59;2148477;83;20968;-58
2021/12/25 08:55:52;;;;;;;38.42;12.53;;;;;;;-6.21;88.01;98408.81;2147698;83;20992;-58
2021/12/25 08:58:52;;;;;;;45.80;16.52;;;;;;;-6.11;87.82;98409.23;2144966;83;21032;-58
2021/12/25 09:01:53;;;;;;;42.43;14.73;;;;;;;-6.07;87.97;98412.65;2144896;83;20972;-59
2021/12/25 09:04:53;;;;;;;47.83;15.60;;;;;;;-5.85;88.65;98409.59;2144754;83;21030;-58
2021/12/25 09:07:54;;;;;;;49.05;17.62;;;;;;;-5.46;88.13;98408.66;2144646;83;21063;-60
2021/12/25 09:10:54;;;;;;;48.20;17.70;;;;;;;-5.18;87.94;98405.15;2144639;83;21024;-59
2021/12/25 09:13:55;;;;;;;37.48;12.13;;;;;;;-5.11;86.91;98399.98;2144825;82;20956;-59
2021/12/25 09:16:56;;;;;;;29.05;8.53;;;;;;;-5.01;85.74;98395.68;2148000;83;21003;-59
2021/12/25 09:19:57;;;;;;;28.05;6.95;;;;;;;-4.96;84.56;98391.38;2131417;83;21016;-59
2021/12/25 09:22:57;;;;;;;21.70;5.12;;;;;;;-5.00;83.71;98390.96;2131391;84;21033;-60
2021/12/25 09:25:57;;;;;;;22.73;5.25;;;;;;;-5.38;83.64;98398.84;2131355;84;21472;-59
2021/12/25 09:28:59;;;;;;;12.68;3.40;;;;;;;-5.51;84.89;98406.97;2131256;83;21582;-60
2021/12/25 09:32:00;;;;;;;17.35;4.35;;;;;;;-5.48;84.12;98411.62;2131511;84;20992;-59
2021/12/25 09:35:00;;;;;;;17.02;3.87;;;;;;;-5.38;83.81;98419.28;2131549;84;21037;-59
2021/12/25 09:38:01;;;;;;;17.10;4.20;;;;;;;-5.21;83.86;98411.12;2131301;84;20981;-59
2021/12/25 09:41:01;;;;;;;18.52;4.10;;;;;;;-5.02;84.47;98411.88;2131362;84;21559;-59
2021/12/25 09:44:02;;;;;;;20.27;4.35;;;;;;;-4.89;83.72;98409.67;2131306;84;21064;-59
2021/12/25 09:47:02;;;;;;;18.35;3.98;;;;;;;-4.75;83.14;98413.88;2145055;83;21024;-59
2021/12/25 09:50:03;;;;;;;19.70;5.05;;;;;;;-4.78;82.25;98421.13;2144805;83;20983;-59
2021/12/25 09:53:03;;;;;;;20.52;5.05;;;;;;;-4.80;82.80;98419.00;2144763;83;21015;-58
2021/12/25 09:56:04;;;;;;;22.85;5.37;;;;;;;-4.64;81.57;98411.23;2145000;83;21062;-59
2021/12/25 09:59:04;;;;;;;19.70;4.95;;;;;;;-4.53;81.69;98405.17;2148339;83;21450;-58
2021/12/25 10:02:05;;;;;;;21.80;5.78;;;;;;;-4.51;80.57;98405.19;2148430;83;21011;-59
2021/12/25 10:05:05;;;;;;;22.05;5.67;;;;;;;-4.41;82.01;98404.27;2148413;83;20984;-59
2021/12/25 10:08:07;;;;;;;21.37;5.22;;;;;;;-4.30;81.82;98403.32;2148128;83;21034;-59
2021/12/25 10:11:09;;;;;;;20.08;4.90;;;;;;;-4.24;80.90;98404.13;2148568;83;21530;-59
2021/12/25 10:14:09;;;;;;;23.73;5.75;;;;;;;-4.21;81.30;98403.23;2148126;83;21080;-59
2021/12/25 10:17:10;;;;;;;22.25;6.15;;;;;;;-4.13;80.83;98405.31;2148447;83;21003;-59
2021/12/25 10:20:11;;;;;;;27.20;8.13;;;;;;;-4.06;80.85;98406.95;2148257;83;20975;-58
2021/12/25 10:23:14;;;;;;;26.62;7.35;;;;;;;-3.83;81.50;98404.62;2148717;83;21527;-59
2021/12/25 10:26:14;;;;;;;23.98;5.80;;;;;;;-3.76;81.50;98404.97;2124043;83;21031;-59
2021/12/25 10:29:15;;;;;;;27.70;7.95;;;;;;;-3.57;81.22;98403.06;2149027;83;21031;-58
2021/12/25 10:32:17;;;;;;;26.80;7.53;;;;;;;-3.49;80.62;98403.00;2148399;83;21043;-59
2021/12/25 10:35:18;;;;;;;21.07;6.08;;;;;;;-3.36;80.81;98399.41;2148415;83;21547;-59
2021/12/25 10:38:18;;;;;;;21.87;5.30;;;;;;;-3.32;79.21;98400.21;2148512;83;21043;-59
2021/12/25 10:41:20;;;;;;;23.70;6.78;;;;;;;-3.22;80.03;98391.98;2148450;83;21058;-59
2021/12/25 10:44:22;;;;;;;;;;;;;;;-3.28;81.27;98391.62;2151163;83;21587;-59
2021/12/25 10:47:22;;;;;;;24.43;6.70;;;;;;;-3.37;79.76;98399.44;2148504;83;20169;-59
2021/12/25 10:50:25;;;;;;;19.27;5.45;;;;;;;-3.75;80.69;98396.42;2148469;83;20983;-59
2021/12/25 10:53:25;;;;;;;22.30;5.25;;;;;;;-3.74;81.42;98399.39;2124171;83;21000;-59
2021/12/25 10:56:26;;;;;;;25.43;5.90;;;;;;;-3.50;81.15;98395.72;2147812;83;21021;-59
2021/12/25 10:59:26;;;;;;;23.45;6.22;;;;;;;-3.30;80.83;98394.65;2144824;83;20957;-60
2021/12/25 11:02:26;;;;;;;30.77;9.78;;;;;;;-3.10;80.38;98398.25;2145027;83;20984;-59
2021/12/25 11:05:27;;;;;;;24.77;7.28;;;;;;;-2.73;79.74;98396.48;2144798;83;20992;-59
2021/12/25 11:08:29;;;;;;;23.62;6.40;;;;;;;-2.60;79.79;98397.16;2144736;83;21005;-59
2021/12/25 11:11:29;;;;;;;23.07;5.90;;;;;;;-2.77;79.09;98393.53;2145182;83;21005;-58
2021/12/25 11:14:30;;;;;;;25.25;6.65;;;;;;;-2.85;79.09;98385.92;2144906;83;21015;-59
2021/12/25 11:17:34;;;;;;;25.30;6.78;;;;;;;-2.92;79.56;98388.16;2144952;83;21498;-59
2021/12/25 11:20:33;;;;;;;29.92;7.92;;;;;;;-3.10;80.08;98385.84;2118606;83;20996;-59
2021/12/25 11:23:33;;;;;;;22.07;5.67;;;;;;;-3.33;79.65;98391.67;2144923;83;21569;-58
2021/12/25 11:26:34;;;;;;;23.40;6.22;;;;;;;-3.49;79.91;98399.98;2144884;83;21032;-59
2021/12/25 11:29:35;;;;;;;21.60;5.85;;;;;;;-3.46;81.88;98395.67;2145063;83;21027;-59
2021/12/25 11:32:36;;;;;;;15.45;3.85;;;;;;;-3.31;81.80;98392.94;2144517;83;21049;-59
2021/12/25 11:35:37;;;;;;;17.55;3.92;;;;;;;-3.11;80.88;98388.01;2144883;83;21529;-59
2021/12/25 11:38:37;;;;;;;20.30;4.28;;;;;;;-3.10;81.37;98383.27;2144985;83;21026;-59
2021/12/25 11:41:39;;;;;;;20.75;5.05;;;;;;;-3.08;80.87;98370.00;2144919;83;21006;-59
2021/12/25 11:44:42;;;;;;;16.30;3.85;;;;;;;-2.96;81.54;98368.53;2144856;83;21060;-59
2021/12/25 11:47:42;;;;;;;16.52;3.83;;;;;;;-2.89;81.26;98368.86;2118592;83;20996;-59
2021/12/25 11:50:45;;;;;;;17.70;4.53;;;;;;;-2.76;79.53;98368.70;2144863;83;21020;-59
2021/12/25 11:57:03;;;;;;;19.05;4.12;;;;;;;-2.66;80.42;98371.13;2119066;83;21012;-59
2021/12/25 11:59:50;;;;;;;;;;;;;;;-2.58;79.20;98374.84;2126169;83;21075;-59
2021/12/25 12:02:50;;;;;;;18.55;4.10;;;;;;;-2.50;79.63;98373.02;2148434;83;20153;-59
2021/12/25 12:05:51;;;;;;;20.55;4.53;;;;;;;-2.48;78.46;98388.41;2148251;83;21548;-59
2021/12/25 12:08:51;;;;;;;19.17;4.28;;;;;;;-2.55;78.16;98391.49;2148399;83;20949;-59
2021/12/25 12:11:52;;;;;;;17.50;4.25;;;;;;;-2.59;78.80;98394.14;2148658;83;20968;-59
2021/12/25 12:14:52;;;;;;;17.35;4.30;;;;;;;-2.61;79.69;98391.59;2148506;83;21011;-59
2021/12/25 12:17:54;;;;;;;20.02;4.75;;;;;;;-2.59;78.57;98391.57;2148658;83;20964;-59
2021/12/25 12:27:00;;;;;;;15.48;3.40;;;;;;;-2.98;77.27;98408.34;2123470;83;21053;-60
2021/12/25 12:30:00;;;;;;;18.90;3.80;;;;;;;-3.00;77.14;98408.80;2148017;83;21032;-59
2021/12/25 12:33:01;;;;;;;18.23;4.20;;;;;;;-3.05;75.04;98412.30;2148275;83;20984;-59
2021/12/25 12:36:02;;;;;;;19.35;4.60;;;;;;;-3.24;75.02;98420.66;2148346;83;21534;-59
2021/12/25 12:39:02;;;;;;;18.75;4.42;;;;;;;-3.33;76.82;98425.02;2148208;83;21052;-59
2021/12/25 12:42:08;;;;;;;19.17;4.55;;;;;;;-3.39;75.74;98435.36;2148250;83;21015;-59
2021/12/25 12:45:06;;;;;;;;;;;;;;;-3.40;77.05;98429.80;2126499;83;21032;-58
2021/12/25 12:48:06;;;;;;;20.00;4.90;;;;;;;-3.46;77.50;98429.02;2148412;83;20092;-59
2021/12/25 12:51:06;;;;;;;19.95;4.65;;;;;;;-3.54;77.64;98432.51;2148365;83;20995;-59
2021/12/25 12:54:07;;;;;;;21.65;4.67;;;;;;;-3.58;77.64;98433.41;2148454;83;21032;-59
2021/12/25 12:57:08;;;;;;;18.35;4.45;;;;;;;-3.56;79.26;98435.53;2148084;83;21095;-59
2021/12/25 13:00:08;;;;;;;21.33;5.00;;;;;;;-3.56;78.79;98433.38;2148321;83;20980;-59
2021/12/25 13:03:09;;;;;;;23.55;5.75;;;;;;;-3.58;79.92;98433.41;2148078;83;21490;-59
2021/12/25 13:06:13;;;;;;;19.98;4.47;;;;;;;-3.60;79.86;98432.58;2148437;83;21558;-59
2021/12/25 13:09:12;;;;;;;19.27;4.33;;;;;;;-3.70;77.84;98441.23;2124033;83;22040;-60
2021/12/25 13:12:28;;;;;;;18.70;4.25;;;;;;;-3.90;77.14;98446.10;2148484;83;20995;-59
2021/12/25 13:15:16;;;;;;;19.90;4.75;;;;;;;-3.93;78.76;98452.98;2123486;83;21000;-60
2021/12/25 13:18:17;;;;;;;21.45;4.75;;;;;;;-3.97;78.08;98445.73;2148444;83;21084;-60
2021/12/25 13:21:17;;;;;;;20.02;4.83;;;;;;;-3.92;79.51;98446.56;2148329;83;21040;-59
2021/12/25 13:24:18;;;;;;;21.30;5.05;;;;;;;-3.88;79.88;98453.36;2148056;83;21008;-59
2021/12/25 13:27:19;;;;;;;23.67;5.50;;;;;;;-3.82;80.38;98452.45;2148176;83;21000;-59
2021/12/25 13:30:20;;;;;;;18.77;4.60;;;;;;;-3.69;80.95;98457.05;2148030;83;21487;-59
2021/12/25 13:33:20;;;;;;;25.37;6.15;;;;;;;-3.71;80.53;98462.16;2148558;83;21077;-59
2021/12/25 13:36:21;;;;;;;23.73;5.78;;;;;;;-3.80;80.41;98448.16;2148279;83;21042;-59
2021/12/25 13:39:25;;;;;;;23.07;5.87;;;;;;;-3.81;81.15;98452.02;2148699;83;21495;-59
2021/12/25 13:42:25;;;;;;;23.07;5.95;;;;;;;-3.68;81.40;98457.44;2123942;83;21229;-59
2021/12/25 13:45:26;;;;;;;27.87;6.15;;;;;;;-3.68;80.67;98462.15;2148431;83;21028;-59
2021/12/25 13:48:26;;;;;;;25.72;5.85;;;;;;;-3.72;81.50;98456.63;2148474;83;20987;-59
2021/12/25 13:51:27;;;;;;;21.42;5.55;;;;;;;-3.65;80.76;98467.66;2148255;83;21031;-59
2021/12/25 13:54:27;;;;;;;21.48;5.28;;;;;;;-3.74;81.06;98467.31;2148278;83;21028;-58
2021/12/25 13:57:28;;;;;;;25.35;5.55;;;;;;;-3.80;81.42;98476.34;2147462;83;21499;-59
2021/12/25 14:00:28;;;;;;;23.05;5.70;;;;;;;-3.90;81.17;98467.88;2144746;83;21059;-59
2021/12/25 14:03:30;;;;;;;22.50;5.58;;;;;;;-4.11;81.37;98470.17;2144652;83;21507;-58
2021/12/25 14:06:30;;;;;;;23.80;5.40;;;;;;;-4.22;81.68;98477.11;2144942;83;21103;-59
2021/12/25 14:09:31;;;;;;;22.25;5.85;;;;;;;-4.32;81.81;98485.70;2144880;83;21015;-59
2021/12/25 14:12:32;;;;;;;25.15;5.80;;;;;;;-4.40;82.37;98491.72;2144766;83;21012;-59
2021/12/25 14:15:34;;;;;;;;;;;;;;;-4.41;82.47;98483.64;2147241;83;21162;-59
2021/12/25 14:18:34;;;;;;;25.05;5.50;;;;;;;-4.50;82.83;98482.84;2144922;83;20168;-58
2021/12/25 14:21:34;;;;;;;23.52;5.87;;;;;;;-4.66;82.83;98488.47;2145167;83;21086;-58
2021/12/25 14:24:35;;;;;;;28.25;6.33;;;;;;;-4.82;83.06;98499.21;2144803;83;20988;-59
2021/12/25 14:27:35;;;;;;;25.20;6.65;;;;;;;-4.93;83.51;98499.24;2144962;83;21044;-58
2021/12/25 14:30:36;;;;;;;26.95;7.10;;;;;;;-4.99;83.77;98489.88;2145012;83;21040;-59
2021/12/25 14:33:36;;;;;;;29.87;7.10;;;;;;;-5.09;84.09;98500.56;2144748;83;21027;-59
2021/12/25 14:36:37;;;;;;;27.80;7.35;;;;;;;-5.10;84.25;98501.85;2145053;83;21039;-59
2021/12/25 14:39:37;;;;;;;27.32;7.67;;;;;;;-5.20;84.24;98498.50;2145107;83;20988;-59
2021/12/25 14:42:38;;;;;;;28.40;7.58;;;;;;;-5.26;84.64;98499.77;2144745;83;21019;-58
2021/12/25 14:45:38;;;;;;;32.25;8.10;;;;;;;-5.30;84.90;98505.34;2144919;83;21011;-60
2021/12/25 14:48:39;;;;;;;25.20;7.15;;;;;;;-5.33;85.09;98504.07;2144633;83;21542;-58
2021/12/25 14:51:42;;;;;;;27.20;6.78;;;;;;;-5.42;85.10;98497.24;2144885;83;21537;-59
2021/12/25 14:54:42;;;;;;;23.25;5.35;;;;;;;-5.58;85.35;98501.53;2118490;83;20992;-58
2021/12/25 14:57:43;;;;;;;25.97;6.42;;;;;;;-5.78;84.01;98514.76;2145010;83;21511;-58
2021/12/25 15:00:43;;;;;;;26.97;7.35;;;;;;;-5.95;84.14;98513.48;2144769;83;21031;-59
2021/12/25 15:03:44;;;;;;;29.98;7.75;;;;;;;-6.11;84.26;98520.31;2145032;83;21050;-58
2021/12/25 15:06:44;;;;;;;28.80;7.92;;;;;;;-6.22;84.49;98534.36;2145206;83;20988;-60
2021/12/25 15:09:45;;;;;;;29.95;8.73;;;;;;;-6.31;84.78;98541.55;2144946;83;21059;-59
2021/12/25 15:12:45;;;;;;;27.37;7.45;;;;;;;-6.33;84.81;98534.75;2144913;83;21035;-60
2021/12/25 15:15:46;;;;;;;29.42;8.43;;;;;;;-6.40;85.01;98548.35;2144631;83;21613;-58
2021/12/25 15:18:47;;;;;;;32.10;8.40;;;;;;;-6.39;85.29;98542.38;2145121;83;20984;-59
2021/12/25 15:21:47;;;;;;;31.80;8.93;;;;;;;-6.36;85.46;98539.86;2145188;83;21011;-59
2021/12/25 15:24:47;;;;;;;36.00;9.68;;;;;;;-6.36;85.26;98538.15;2145081;83;21023;-59
2021/12/25 15:27:50;;;;;;;34.05;8.95;;;;;;;-6.41;85.44;98537.70;2144967;83;21007;-59
2021/12/25 15:30:51;;;;;;;33.83;9.10;;;;;;;-6.42;85.79;98539.42;2145006;83;21123;-59